Time;durP1;ratioP1;P1;durP2;ratioP2;P2;SDS_P1;SDS_P2;PMS_P1;PMS_P2;Temp;Humidity;BMP_temperature;BMP_pressure;BME280_temperature;BME280_humidity;BME280_pressure;Samples;Min_cycle;Max_cycle;Signal;HPM_P1;HPM_P2
2023/07/16 00:01:22;;;;;;;;;;;;;;;29.08;40.44;99708.97;5032566;28;19909;-77
2023/07/16 00:03:48;;;;;;;;;;;;;;;29.07;40.32;99710.88;5032574;28;19971;-78
2023/07/16 00:06:13;;;;;;;;;;;;;;;29.03;40.45;99712.59;5032279;28;19916;-78
2023/07/16 00:08:38;;;;;;;;;;;;;;;28.98;40.10;99701.75;5032521;28;19992;-76
2023/07/16 00:11:04;;;;;;;;;;;;;;;28.97;40.29;99702.06;5032666;28;19963;-77
2023/07/16 00:13:29;;;;;;;;;;;;;;;28.94;40.55;99703.44;5033255;28;19916;-80
2023/07/16 00:15:54;;;;;;;;;;;;;;;28.90;40.32;99697.00;5032530;28;19935;-79
2023/07/16 00:18:20;;;;;;;;;;;;;;;28.88;40.20;99696.47;5032560;28;19945;-79
2023/07/16 00:20:45;;;;;;;;;;;;;;;28.87;40.44;99703.03;5015368;28;20366;-78
2023/07/16 00:23:10;;;;;;;;;;;;;;;28.83;40.22;99701.16;5032150;28;20015;-78
2023/07/16 00:25:35;;;;;;;;;;;;;;;28.80;40.53;99699.84;5032230;28;19916;-78
2023/07/16 00:28:01;;;;;;;;;;;;;;;28.77;40.57;99703.94;5032557;28;20285;-78
2023/07/16 00:30:26;;;;;;;;;;;;;;;28.75;40.23;99692.56;5032569;28;19916;-75
2023/07/16 00:32:51;;;;;;;;;;;;;;;28.73;40.09;99700.19;5031015;28;19913;-77
2023/07/16 00:35:16;;;;;;;;;;;;;;;28.71;40.17;99696.97;5033382;28;19992;-79
2023/07/16 00:37:42;;;;;;;;;;;;;;;28.68;39.96;99696.75;5033093;28;19917;-78
2023/07/16 00:40:07;;;;;;;;;;;;;;;28.64;40.28;99698.44;5032283;28;19923;-77
2023/07/16 00:42:33;;;;;;;;;;;;;;;28.63;40.10;99694.09;5014448;28;19964;-78
2023/07/16 00:44:58;;;;;;;;;;;;;;;28.56;40.35;99699.91;5032448;28;19909;-78
2023/07/16 00:47:23;;;;;;;;;;;;;;;28.55;40.74;99698.28;5032166;28;19916;-77
2023/07/16 00:49:49;;;;;;;;;;;;;;;28.52;40.70;99696.16;5032017;28;20388;-78
2023/07/16 00:52:16;;;;;;;;;;;;;;;28.48;40.80;99701.38;5032044;28;19916;-78
2023/07/16 00:54:41;;;;;;;;;;;;;;;28.44;41.01;99699.53;5014471;28;19909;-78
2023/07/16 00:57:07;;;;;;;;;;;;;;;28.42;40.81;99705.25;5014103;28;20043;-78
2023/07/16 00:59:33;;;;;;;;;;;;;;;28.44;40.31;99700.34;5031832;28;19924;-78
2023/07/16 01:01:58;;;;;;;;;;;;;;;28.33;40.61;99688.00;5031806;28;19909;-78
2023/07/16 01:04:23;;;;;;;;;;;;;;;28.30;40.42;99693.19;5031912;28;19912;-79
2023/07/16 01:06:52;;;;;;;;;;;;;;;28.24;40.65;99688.91;5014158;28;19909;-78
2023/07/16 01:09:18;;;;;;;;;;;;;;;28.18;40.57;99691.66;5031961;28;19916;-78
2023/07/16 01:11:44;;;;;;;;;;;;;;;28.16;41.09;99698.47;5031820;28;19909;-78
2023/07/16 01:14:09;;;;;;;;;;;;;;;28.15;41.15;99694.13;5031521;28;20301;-78
2023/07/16 01:16:35;;;;;;;;;;;;;;;28.15;40.99;99683.28;5031432;28;19909;-78
2023/07/16 01:19:00;;;;;;;;;;;;;;;28.11;41.23;99690.38;5031599;28;19916;-78
2023/07/16 01:21:29;;;;;;;;;;;;;;;28.04;41.36;99679.06;5031720;28;19909;-78
2023/07/16 01:23:54;;;;;;;;;;;;;;;28.02;41.28;99683.97;5013818;28;19913;-77
2023/07/16 01:26:20;;;;;;;;;;;;;;;28.02;41.29;99683.97;5031511;28;20283;-76
2023/07/16 01:28:54;;;;;;;;;;;;;;;28.01;41.49;99677.75;5031380;28;19917;-78
2023/07/16 01:31:22;;;;;;;;;;;;;;;27.98;41.66;99677.50;5031540;28;19923;-78
2023/07/16 01:33:48;;;;;;;;;;;;;;;28.01;41.09;99676.94;5013803;28;19909;-77
2023/07/16 01:36:14;;;;;;;;;;;;;;;28.02;40.78;99681.25;5033475;28;19962;-77
2023/07/16 01:38:39;;;;;;;;;;;;;;;27.99;41.57;99674.50;5017453;28;20352;-79
2023/07/16 01:41:04;;;;;;;;;;;;;;;27.95;41.72;99672.66;5035188;28;19909;-78
2023/07/16 01:43:29;;;;;;;;;;;;;;;27.94;41.49;99682.72;5035033;28;19913;-78
2023/07/16 01:45:55;;;;;;;;;;;;;;;27.90;42.13;99675.44;5035038;28;19955;-78
2023/07/16 01:48:26;;;;;;;;;;;;;;;27.84;42.14;99683.63;5034996;28;20309;-79
2023/07/16 01:50:51;;;;;;;;;;;;;;;27.78;42.72;99684.78;5035000;28;20485;-78
2023/07/16 01:53:16;;;;;;;;;;;;;;;27.75;42.17;99682.66;5034998;28;19913;-78
2023/07/16 01:55:42;;;;;;;;;;;;;;;27.73;42.07;99692.97;5035049;28;19963;-78
2023/07/16 01:58:08;;;;;;;;;;;;;;;27.70;42.46;99693.56;5034913;28;19916;-77
2023/07/16 02:00:33;;;;;;;;;;;;;;;27.66;42.81;99697.94;5035003;28;20004;-77
2023/07/16 02:02:58;;;;;;;;;;;;;;;27.65;42.94;99692.81;5035074;28;20003;-76
2023/07/16 02:05:23;;;;;;;;;;;;;;;27.65;42.65;99695.50;5034662;28;19909;-77
2023/07/16 02:07:49;;;;;;;;;;;;;;;27.66;43.02;99699.84;5034963;28;19905;-78
2023/07/16 02:10:14;;;;;;;;;;;;;;;27.65;42.94;99701.75;5034707;28;19908;-77
2023/07/16 02:12:39;;;;;;;;;;;;;;;27.64;42.88;99708.28;5034447;28;20382;-79
2023/07/16 02:15:05;;;;;;;;;;;;;;;27.63;42.79;99701.22;5016776;28;19909;-79
2023/07/16 02:17:30;;;;;;;;;;;;;;;27.59;42.81;99702.88;5016778;28;19963;-78
2023/07/16 02:19:55;;;;;;;;;;;;;;;27.54;43.32;99708.34;5034625;28;20295;-76
2023/07/16 02:22:21;;;;;;;;;;;;;;;27.56;42.52;99708.84;5034604;28;19909;-78
2023/07/16 02:24:46;;;;;;;;;;;;;;;27.52;43.54;99700.50;5034551;28;19913;-78
2023/07/16 02:27:11;;;;;;;;;;;;;;;27.51;43.10;99704.28;5034520;28;19909;-78
2023/07/16 02:29:36;;;;;;;;;;;;;;;27.51;43.71;99712.44;5034319;28;20316;-79
2023/07/16 02:32:02;;;;;;;;;;;;;;;27.46;43.69;99706.22;5034541;28;19913;-78
2023/07/16 02:34:27;;;;;;;;;;;;;;;27.49;42.72;99705.66;5016576;28;19909;-78
2023/07/16 02:36:52;;;;;;;;;;;;;;;27.47;43.28;99705.94;5016487;28;19916;-78
2023/07/16 02:39:17;;;;;;;;;;;;;;;27.48;42.62;99704.84;5034187;28;20357;-78
2023/07/16 02:41:43;;;;;;;;;;;;;;;27.46;43.28;99703.50;5016185;28;19959;-78
2023/07/16 02:44:08;;;;;;;;;;;;;;;27.43;44.01;99704.06;5034308;28;19913;-78
2023/07/16 02:46:34;;;;;;;;;;;;;;;27.40;43.59;99701.94;5016287;28;19909;-78
2023/07/16 02:48:59;;;;;;;;;;;;;;;27.36;43.62;99709.81;5034808;28;19915;-78
2023/07/16 02:51:24;;;;;;;;;;;;;;;27.34;43.45;99708.50;5034768;28;20441;-78
2023/07/16 02:53:50;;;;;;;;;;;;;;;27.21;44.20;99716.19;5034230;28;19939;-78
2023/07/16 02:56:16;;;;;;;;;;;;;;;27.09;44.44;99704.91;5034451;28;20386;-77
2023/07/16 02:58:41;;;;;;;;;;;;;;;26.98;44.76;99716.09;5016597;28;20326;-77
2023/07/16 03:01:07;;;;;;;;;;;;;;;26.94;44.78;99720.44;5016607;28;19916;-77
2023/07/16 03:03:32;;;;;;;;;;;;;;;26.90;44.33;99722.91;5016277;28;19913;-77
2023/07/16 03:05:57;;;;;;;;;;;;;;;26.82;44.97;99726.19;5034077;28;19952;-77
2023/07/16 03:08:26;;;;;;;;;;;;;;;26.65;45.94;99723.81;5034306;28;19913;-77
2023/07/16 03:10:51;;;;;;;;;;;;;;;26.51;46.49;99720.91;5033963;28;20010;-77
2023/07/16 03:13:16;;;;;;;;;;;;;;;26.43;46.64;99724.22;5033415;28;19968;-77
2023/07/16 03:15:42;;;;;;;;;;;;;;;26.36;46.10;99725.59;5032138;28;19912;-78
2023/07/16 03:18:07;;;;;;;;;;;;;;;26.36;45.98;99728.31;5033635;28;20348;-78
2023/07/16 03:20:32;;;;;;;;;;;;;;;26.29;47.44;99723.97;5033567;28;19916;-78
2023/07/16 03:22:57;;;;;;;;;;;;;;;26.27;46.58;99725.34;5033376;28;19913;-78
2023/07/16 03:25:23;;;;;;;;;;;;;;;26.22;47.13;99725.34;5033573;28;19909;-78
2023/07/16 03:27:48;;;;;;;;;;;;;;;26.22;47.04;99728.88;5033294;28;19932;-78
2023/07/16 03:30:13;;;;;;;;;;;;;;;26.20;47.34;99730.22;5016360;28;19909;-78
2023/07/16 03:32:38;;;;;;;;;;;;;;;26.22;46.36;99726.16;5034252;28;20003;-78
2023/07/16 03:35:04;;;;;;;;;;;;;;;26.15;46.79;99724.84;5032395;28;19909;-78
2023/07/16 03:37:29;;;;;;;;;;;;;;;26.10;46.70;99728.38;5033893;28;19971;-78
2023/07/16 03:39:54;;;;;;;;;;;;;;;26.10;46.74;99732.97;5033224;28;19967;-78
2023/07/16 03:42:22;;;;;;;;;;;;;;;26.17;46.82;99734.31;5033436;28;19944;-77
2023/07/16 03:44:47;;;;;;;;;;;;;;;26.19;46.65;99737.53;5033480;28;19987;-78
2023/07/16 03:47:12;;;;;;;;;;;;;;;26.22;46.51;99734.28;5035388;28;20298;-79
2023/07/16 03:49:37;;;;;;;;;;;;;;;26.24;46.77;99737.53;5035728;28;19909;-78
2023/07/16 03:52:03;;;;;;;;;;;;;;;26.28;47.14;99738.59;5015695;28;19909;-78
2023/07/16 03:54:28;;;;;;;;;;;;;;;26.31;47.53;99734.53;5033552;28;19909;-78
2023/07/16 03:56:54;;;;;;;;;;;;;;;26.34;47.46;99738.59;5033286;28;19909;-78
2023/07/16 03:59:19;;;;;;;;;;;;;;;26.37;47.13;99732.63;5031848;28;20340;-78
2023/07/16 04:01:44;;;;;;;;;;;;;;;26.49;46.11;99744.75;5032493;28;19959;-78
2023/07/16 04:04:09;;;;;;;;;;;;;;;26.54;46.14;99746.63;5032552;28;19956;-78
2023/07/16 04:06:35;;;;;;;;;;;;;;;26.57;45.76;99741.47;5032463;28;19916;-78
2023/07/16 04:09:00;;;;;;;;;;;;;;;26.63;46.04;99738.75;5032544;28;19913;-78
2023/07/16 04:11:25;;;;;;;;;;;;;;;26.69;46.28;99751.16;5032313;28;20369;-78
2023/07/16 04:13:50;;;;;;;;;;;;;;;26.76;45.51;99749.78;5032505;28;19912;-78
2023/07/16 04:16:16;;;;;;;;;;;;;;;26.80;44.89;99752.75;5014746;28;20302;-78
2023/07/16 04:18:41;;;;;;;;;;;;;;;26.80;45.33;99755.47;5032314;28;19915;-79
2023/07/16 04:21:06;;;;;;;;;;;;;;;26.82;45.19;99751.38;5032307;28;20374;-79
2023/07/16 04:23:31;;;;;;;;;;;;;;;26.86;45.27;99759.75;5032047;28;20003;-78
2023/07/16 04:25:57;;;;;;;;;;;;;;;26.89;44.78;99762.72;5032048;28;19916;-78
2023/07/16 04:28:22;;;;;;;;;;;;;;;26.95;44.45;99765.41;5032093;28;19919;-78
2023/07/16 04:30:47;;;;;;;;;;;;;;;27.01;44.50;99762.41;5032049;28;20004;-78
2023/07/16 04:33:13;;;;;;;;;;;;;;;27.05;44.10;99762.66;5032370;28;19913;-78
2023/07/16 04:35:38;;;;;;;;;;;;;;;27.09;44.24;99755.59;5032252;28;19909;-78
2023/07/16 04:38:03;;;;;;;;;;;;;;;27.08;44.33;99762.91;5032138;28;19909;-78
2023/07/16 04:40:29;;;;;;;;;;;;;;;27.01;44.73;99765.13;5014655;28;19916;-78
2023/07/16 04:42:54;;;;;;;;;;;;;;;27.03;44.74;99759.41;5032142;28;19913;-78
2023/07/16 04:45:19;;;;;;;;;;;;;;;27.04;44.71;99766.47;5032259;28;19909;-78
2023/07/16 04:47:45;;;;;;;;;;;;;;;27.00;45.92;99763.50;5030889;28;19962;-78
2023/07/16 04:50:10;;;;;;;;;;;;;;;27.00;45.91;99768.91;5031990;28;19909;-78
2023/07/16 04:52:35;;;;;;;;;;;;;;;27.04;45.47;99767.28;5031817;28;19992;-78
2023/07/16 04:55:01;;;;;;;;;;;;;;;27.10;45.37;99766.16;5031983;28;19909;-78
2023/07/16 04:57:26;;;;;;;;;;;;;;;27.11;45.42;99773.19;5031806;28;19909;-78
2023/07/16 04:59:52;;;;;;;;;;;;;;;27.09;45.18;99782.69;5032101;28;19916;-77
2023/07/16 05:02:17;;;;;;;;;;;;;;;27.06;45.19;99775.94;5031983;28;20309;-77
2023/07/16 05:04:44;;;;;;;;;;;;;;;27.05;45.88;99778.91;5031937;28;19917;-78
2023/07/16 05:07:09;;;;;;;;;;;;;;;27.04;45.74;99778.13;5031723;28;20356;-78
2023/07/16 05:09:34;;;;;;;;;;;;;;;27.11;45.05;99778.59;5031847;28;19916;-78
2023/07/16 05:11:59;;;;;;;;;;;;;;;27.17;44.83;99782.91;5017573;28;19952;-77
2023/07/16 05:14:26;;;;;;;;;;;;;;;27.22;45.04;99784.78;5035911;28;19931;-78
2023/07/16 05:16:51;;;;;;;;;;;;;;;27.26;44.39;99785.00;5035665;28;19939;-78
2023/07/16 05:19:16;;;;;;;;;;;;;;;27.30;43.88;99781.47;5035784;28;19913;-77
2023/07/16 05:21:41;;;;;;;;;;;;;;;27.32;44.07;99787.41;5035649;28;20053;-78
2023/07/16 05:24:07;;;;;;;;;;;;;;;27.36;44.09;99791.16;5035417;28;20313;-77
2023/07/16 05:26:33;;;;;;;;;;;;;;;27.44;43.74;99787.03;5035479;28;19963;-77
2023/07/16 05:28:58;;;;;;;;;;;;;;;27.48;43.77;99791.63;5035494;28;19909;-77
2023/07/16 05:31:23;;;;;;;;;;;;;;;27.51;43.95;99787.56;5035300;28;19909;-78
2023/07/16 05:33:48;;;;;;;;;;;;;;;27.57;43.85;99786.44;5035071;28;19909;-77
2023/07/16 05:36:14;;;;;;;;;;;;;;;27.60;43.83;99796.72;5035120;28;19916;-78
2023/07/16 05:38:39;;;;;;;;;;;;;;;27.61;43.75;99794.84;5035269;28;19905;-77
2023/07/16 05:41:05;;;;;;;;;;;;;;;27.62;44.18;99793.75;5035091;28;20301;-77
2023/07/16 05:43:30;;;;;;;;;;;;;;;27.65;43.89;99794.00;5017628;28;19913;-77
2023/07/16 05:45:55;;;;;;;;;;;;;;;27.69;43.57;99797.75;5035530;28;20005;-77
2023/07/16 05:48:21;;;;;;;;;;;;;;;27.73;43.31;99790.66;5035812;28;19931;-77
2023/07/16 05:50:46;;;;;;;;;;;;;;;27.78;43.03;99795.22;5035524;28;19967;-78
2023/07/16 05:53:30;;;;;;;;;;;;;;;27.82;43.42;99805.22;5035232;28;19909;-77
2023/07/16 05:55:55;;;;;;;;;;;;;;;27.85;43.46;99803.84;5035199;28;19971;-76
2023/07/16 05:58:20;;;;;;;;;;;;;;;27.90;43.54;99805.69;5034710;28;20015;-78
2023/07/16 06:00:46;;;;;;;;;;;;;;;27.98;42.71;99803.19;5034659;28;19939;-77
2023/07/16 06:03:11;;;;;;;;;;;;;;;28.00;43.27;99802.88;5016804;28;19999;-78
2023/07/16 06:05:37;;;;;;;;;;;;;;;28.04;43.15;99810.16;5034612;28;20412;-77
2023/07/16 06:08:02;;;;;;;;;;;;;;;28.09;43.93;99810.13;5034866;28;19916;-77
2023/07/16 06:10:27;;;;;;;;;;;;;;;28.12;42.36;99812.25;5034718;28;19913;-78
2023/07/16 06:12:53;;;;;;;;;;;;;;;28.17;41.78;99814.13;5035183;28;19909;-78
2023/07/16 06:15:18;;;;;;;;;;;;;;;28.19;41.94;99809.22;5035180;28;19932;-77
2023/07/16 06:17:43;;;;;;;;;;;;;;;28.23;42.04;99809.44;5034775;28;20424;-77
2023/07/16 06:20:09;;;;;;;;;;;;;;;28.27;42.11;99808.63;5016925;28;19963;-77
2023/07/16 06:22:34;;;;;;;;;;;;;;;28.33;41.77;99814.81;5033960;28;19971;-77
2023/07/16 06:25:00;;;;;;;;;;;;;;;28.39;42.34;99810.94;5016890;28;19909;-77
2023/07/16 06:27:25;;;;;;;;;;;;;;;28.45;42.26;99823.38;5034430;28;19916;-77
2023/07/16 06:29:50;;;;;;;;;;;;;;;28.50;41.64;99808.94;5034470;28;19916;-76
2023/07/16 06:32:16;;;;;;;;;;;;;;;28.54;41.61;99809.97;5034786;28;19909;-77
2023/07/16 06:34:41;;;;;;;;;;;;;;;28.57;41.33;99810.19;5017672;28;20448;-78
2023/07/16 06:37:06;;;;;;;;;;;;;;;28.62;40.96;99801.16;5037464;28;19967;-77
2023/07/16 06:39:32;;;;;;;;;;;;;;;28.69;41.39;99809.78;5035709;28;19920;-77
2023/07/16 06:41:57;;;;;;;;;;;;;;;28.72;42.04;99807.28;5034709;28;19913;-77
2023/07/16 06:44:23;;;;;;;;;;;;;;;28.75;40.84;99809.41;5033979;28;19967;-78
2023/07/16 06:46:48;;;;;;;;;;;;;;;28.83;41.16;99799.81;5034055;28;19959;-78
2023/07/16 06:49:13;;;;;;;;;;;;;;;28.89;41.24;99806.81;5033839;28;19909;-78
2023/07/16 06:51:39;;;;;;;;;;;;;;;28.94;40.72;99808.66;5033924;28;19962;-78
2023/07/16 06:54:04;;;;;;;;;;;;;;;28.98;40.80;99804.25;5033686;28;20389;-78
2023/07/16 06:56:29;;;;;;;;;;;;;;;29.03;40.67;99805.03;5033822;28;19909;-77
2023/07/16 06:58:54;;;;;;;;;;;;;;;29.06;40.04;99790.84;5034209;28;19917;-78
2023/07/16 07:01:20;;;;;;;;;;;;;;;29.10;40.54;99791.06;5036662;28;20371;-79
2023/07/16 07:03:45;;;;;;;;;;;;;;;29.17;40.14;99796.13;5034594;28;19913;-76
2023/07/16 07:06:10;;;;;;;;;;;;;;;29.22;39.88;99794.13;5034319;28;19909;-78
2023/07/16 07:08:36;;;;;;;;;;;;;;;29.27;40.03;99799.50;5034100;28;20452;-76
2023/07/16 07:11:01;;;;;;;;;;;;;;;29.34;39.58;99796.41;5033992;28;19909;-78
2023/07/16 07:13:27;;;;;;;;;;;;;;;29.40;39.36;99787.06;5033925;28;19913;-78
2023/07/16 07:15:52;;;;;;;;;;;;;;;29.46;39.52;99794.06;5033864;28;19963;-77
2023/07/16 07:18:17;;;;;;;;;;;;;;;29.48;38.62;99786.41;5033593;28;19909;-78
2023/07/16 07:20:42;;;;;;;;;;;;;;;29.45;37.93;99791.63;5033627;28;20306;-78
2023/07/16 07:23:08;;;;;;;;;;;;;;;29.44;37.78;99792.75;5033350;28;19913;-78
2023/07/16 07:25:33;;;;;;;;;;;;;;;29.45;37.79;99787.00;5033352;28;19913;-78
2023/07/16 07:27:58;;;;;;;;;;;;;;;29.51;37.43;99785.00;5015844;28;19932;-78
2023/07/16 07:30:24;;;;;;;;;;;;;;;29.55;37.88;99781.41;5015822;28;20015;-78
2023/07/16 07:32:49;;;;;;;;;;;;;;;29.64;37.27;99781.53;5015156;28;19916;-77
2023/07/16 07:35:14;;;;;;;;;;;;;;;29.70;37.37;99774.88;5033160;28;19984;-78
2023/07/16 07:37:39;;;;;;;;;;;;;;;29.80;37.07;99779.38;5033344;28;20305;-77
2023/07/16 07:40:05;;;;;;;;;;;;;;;29.91;37.08;99775.34;5033268;28;19913;-78
2023/07/16 07:42:30;;;;;;;;;;;;;;;30.02;37.15;99774.09;5033057;28;19916;-76
2023/07/16 07:44:56;;;;;;;;;;;;;;;30.12;35.55;99776.63;5033001;28;19912;-78
2023/07/16 07:47:21;;;;;;;;;;;;;;;30.18;36.28;99769.16;5032794;28;19978;-76
2023/07/16 07:49:46;;;;;;;;;;;;;;;30.24;36.18;99776.94;5033199;28;19916;-78
2023/07/16 07:52:11;;;;;;;;;;;;;;;30.30;34.72;99773.00;5032997;28;20310;-76
2023/07/16 07:54:37;;;;;;;;;;;;;;;30.38;35.70;99778.84;5032929;28;19916;-79
2023/07/16 07:57:03;;;;;;;;;;;;;;;30.44;35.51;99775.72;5032805;28;20003;-77
2023/07/16 07:59:29;;;;;;;;;;;;;;;30.50;35.71;99771.00;5014915;28;19924;-78
2023/07/16 08:01:54;;;;;;;;;;;;;;;30.58;35.66;99776.53;5032918;28;19909;-77
2023/07/16 08:04:19;;;;;;;;;;;;;;;30.67;36.30;99769.28;5032532;28;19957;-77
2023/07/16 08:06:44;;;;;;;;;;;;;;;30.72;35.43;99776.53;5032412;28;19909;-78
2023/07/16 08:09:10;;;;;;;;;;;;;;;30.78;35.41;99778.06;5032462;28;19976;-78
2023/07/16 08:11:35;;;;;;;;;;;;;;;30.83;34.65;99769.75;5032216;28;19916;-78
2023/07/16 08:14:00;;;;;;;;;;;;;;;30.87;34.70;99780.84;5032529;28;19910;-76
2023/07/16 08:16:25;;;;;;;;;;;;;;;30.97;35.59;99767.00;5014656;28;19912;-78
2023/07/16 08:18:51;;;;;;;;;;;;;;;31.00;35.20;99771.84;5032172;28;20340;-77
2023/07/16 08:21:19;;;;;;;;;;;;;;;31.11;34.58;99772.41;5032243;28;19905;-78
2023/07/16 08:23:45;;;;;;;;;;;;;;;31.22;34.21;99771.09;5032150;28;19913;-77
2023/07/16 08:26:12;;;;;;;;;;;;;;;31.26;33.63;99767.44;5032074;28;20374;-78
2023/07/16 08:28:37;;;;;;;;;;;;;;;31.34;34.80;99771.34;5014485;28;19916;-76
2023/07/16 08:31:03;;;;;;;;;;;;;;;31.43;34.58;99771.41;5032141;28;19909;-77
2023/07/16 08:33:28;;;;;;;;;;;;;;;31.48;32.70;99768.56;5032393;28;19962;-78
2023/07/16 08:35:53;;;;;;;;;;;;;;;31.54;32.96;99767.31;5032362;28;19909;-76
2023/07/16 08:38:18;;;;;;;;;;;;;;;31.63;32.64;99765.44;5032464;28;20306;-78
2023/07/16 08:40:46;;;;;;;;;;;;;;;31.77;32.87;99770.84;5032428;28;19909;-77
2023/07/16 08:43:12;;;;;;;;;;;;;;;31.90;32.48;99761.75;5032297;28;19912;-77
2023/07/16 08:45:44;;;;;;;;;;;;;;;32.05;33.49;99763.31;5031885;28;20386;-78
2023/07/16 08:48:10;;;;;;;;;;;;;;;32.18;33.00;99768.66;5032199;28;19972;-77
2023/07/16 08:50:39;;;;;;;;;;;;;;;32.23;31.00;99763.06;5032290;28;19998;-77
2023/07/16 08:53:05;;;;;;;;;;;;;;;32.36;32.40;99757.81;5032327;28;19913;-77
2023/07/16 08:55:30;;;;;;;;;;;;;;;32.44;28.85;99762.50;5032209;28;19901;-77
2023/07/16 08:57:55;;;;;;;;;;;;;;;32.53;29.99;99758.66;5032003;28;19917;-75
2023/07/16 09:00:21;;;;;;;;;;;;;;;32.65;31.18;99760.78;5032015;28;19909;-78
2023/07/16 09:02:46;;;;;;;;;;;;;;;32.76;31.24;99758.56;5031828;28;19916;-77
2023/07/16 09:05:14;;;;;;;;;;;;;;;32.85;30.64;99752.00;5014179;28;19967;-76
2023/07/16 09:07:39;;;;;;;;;;;;;;;33.01;29.78;99751.53;5032049;28;19991;-77
2023/07/16 09:10:05;;;;;;;;;;;;;;;33.13;30.40;99752.50;5031845;28;20016;-77
2023/07/16 09:12:30;;;;;;;;;;;;;;;33.28;30.81;99753.94;5032072;28;19916;-77
2023/07/16 09:14:55;;;;;;;;;;;;;;;33.37;28.97;99748.47;5032064;28;19912;-75
2023/07/16 09:17:22;;;;;;;;;;;;;;;33.45;29.71;99742.22;5032209;28;19947;-77
2023/07/16 09:19:47;;;;;;;;;;;;;;;33.59;29.34;99752.97;5031831;28;19909;-76
2023/07/16 09:22:13;;;;;;;;;;;;;;;33.75;30.42;99748.56;5032233;28;20003;-79
2023/07/16 09:24:38;;;;;;;;;;;;;;;33.93;29.37;99747.41;5031575;28;19913;-77
2023/07/16 09:27:04;;;;;;;;;;;;;;;34.10;28.18;99750.06;5031725;28;19909;-79
2023/07/16 09:29:29;;;;;;;;;;;;;;;34.25;27.29;99748.75;5013819;28;19916;-77
2023/07/16 09:31:55;;;;;;;;;;;;;;;34.44;28.17;99740.09;5031475;28;19948;-77
2023/07/16 09:34:21;;;;;;;;;;;;;;;34.57;28.02;99736.31;5031398;28;19912;-78
2023/07/16 09:36:47;;;;;;;;;;;;;;;34.66;27.98;99730.75;5031368;28;19909;-77
2023/07/16 09:39:13;;;;;;;;;;;;;;;34.80;28.85;99735.97;5031209;28;19905;-77
2023/07/16 09:41:40;;;;;;;;;;;;;;;34.87;27.86;99736.28;5031222;28;19959;-77
2023/07/16 09:44:05;;;;;;;;;;;;;;;35.07;27.32;99734.69;5031389;28;20390;-77
2023/07/16 09:46:31;;;;;;;;;;;;;;;35.26;27.02;99729.50;5013745;28;19917;-78
2023/07/16 09:48:56;;;;;;;;;;;;;;;35.47;27.81;99721.25;5031447;28;19909;-77
2023/07/16 09:51:22;;;;;;;;;;;;;;;35.70;27.47;99729.91;5031405;28;19944;-78
2023/07/16 09:53:48;;;;;;;;;;;;;;;35.88;27.33;99728.56;5029600;28;19912;-78
2023/07/16 09:56:14;;;;;;;;;;;;;;;36.00;27.60;99723.09;5031353;28;19948;-77
2023/07/16 09:58:39;;;;;;;;;;;;;;;36.12;27.29;99727.78;5034794;28;20440;-77
2023/07/16 10:01:05;;;;;;;;;;;;;;;36.31;26.51;99722.53;5034865;28;19935;-77
2023/07/16 10:03:30;;;;;;;;;;;;;;;36.44;25.50;99721.41;5034585;28;19913;-77
2023/07/16 10:06:05;;;;;;;;;;;;;;;36.56;26.23;99715.06;5034556;28;20051;-77
2023/07/16 10:08:34;;;;;;;;;;;;;;;36.60;26.45;99708.53;5034749;28;19984;-77
2023/07/16 10:10:59;;;;;;;;;;;;;;;36.66;25.51;99702.78;5034778;28;19909;-76
2023/07/16 10:13:26;;;;;;;;;;;;;;;36.84;27.06;99704.94;5035192;28;20000;-75
2023/07/16 10:15:55;;;;;;;;;;;;;;;36.88;26.53;99716.03;5035599;28;20362;-78
2023/07/16 10:18:24;;;;;;;;;;;;;;;36.79;25.20;99702.41;5037312;28;19909;-78
2023/07/16 10:20:51;;;;;;;;;;;;;;;36.99;25.17;99697.88;5036083;28;19908;-76
2023/07/16 10:23:16;;;;;;;;;;;;;;;37.20;25.70;99705.94;5035235;28;20297;-76
2023/07/16 10:26:01;;;;;;;;;;;;;;;37.37;24.87;99705.66;5017459;28;19913;-76
2023/07/16 10:28:26;;;;;;;;;;;;;;;37.53;24.77;99697.41;5034697;28;19905;-77
2023/07/16 10:30:52;;;;;;;;;;;;;;;37.70;25.45;99691.56;5034454;28;19916;-79
2023/07/16 10:33:17;;;;;;;;;;;;;;;37.92;23.55;99695.69;5016979;28;20413;-77
2023/07/16 10:35:42;;;;;;;;;;;;;;;37.96;25.01;99693.81;5016526;28;19912;-77
2023/07/16 10:38:08;;;;;;;;;;;;;;;38.09;25.47;99683.47;5033994;28;19911;-77
2023/07/16 10:40:39;;;;;;;;;;;;;;;38.24;25.27;99677.16;5016076;28;20378;-78
2023/07/16 10:43:05;;;;;;;;;;;;;;;38.32;25.51;99684.41;5034281;28;20305;-77
2023/07/16 10:45:31;;;;;;;;;;;;;;;38.46;24.68;99670.94;5034557;28;19909;-78
2023/07/16 10:47:56;;;;;;;;;;;;;;;38.63;23.37;99682.72;5034503;28;20301;-78
2023/07/16 10:50:22;;;;;;;;;;;;;;;38.70;24.83;99677.41;5034488;28;20382;-78
2023/07/16 10:52:50;;;;;;;;;;;;;;;38.80;22.76;99663.00;5016489;28;19997;-77
2023/07/16 10:55:15;;;;;;;;;;;;;;;38.98;24.19;99666.91;5034388;28;20043;-77
2023/07/16 10:57:41;;;;;;;;;;;;;;;39.00;24.40;99674.84;5034155;28;19956;-77
2023/07/16 11:00:10;;;;;;;;;;;;;;;39.05;24.30;99666.28;5016328;28;20000;-76
2023/07/16 11:02:40;;;;;;;;;;;;;;;39.15;23.88;99659.34;5034038;28;19988;-76
2023/07/16 11:05:05;;;;;;;;;;;;;;;39.02;24.22;99651.22;5034067;28;19913;-77
2023/07/16 11:07:30;;;;;;;;;;;;;;;38.99;24.13;99649.19;5034049;28;19909;-78
2023/07/16 11:09:56;;;;;;;;;;;;;;;39.02;23.10;99653.97;5034048;28;19909;-78
2023/07/16 11:12:22;;;;;;;;;;;;;;;39.16;22.68;99644.38;5033988;28;19913;-78
2023/07/16 11:14:49;;;;;;;;;;;;;;;39.22;21.61;99640.94;5033891;28;20463;-77
2023/07/16 11:17:14;;;;;;;;;;;;;;;39.33;21.82;99641.13;5015933;28;19916;-77
2023/07/16 11:19:40;;;;;;;;;;;;;;;39.47;23.04;99638.66;5033894;28;19909;-75
2023/07/16 11:22:07;;;;;;;;;;;;;;;39.67;24.08;99633.84;5033753;28;19917;-78
2023/07/16 11:24:38;;;;;;;;;;;;;;;39.85;23.83;99636.91;5033585;28;19917;-78
2023/07/16 11:27:04;;;;;;;;;;;;;;;39.97;23.32;99640.28;5015723;28;20393;-78
2023/07/16 11:29:36;;;;;;;;;;;;;;;40.14;23.20;99633.44;5033550;28;19909;-77
2023/07/16 11:32:01;;;;;;;;;;;;;;;40.11;22.27;99628.63;5033570;28;20382;-77
2023/07/16 11:34:27;;;;;;;;;;;;;;;40.11;20.82;99628.63;5033697;28;19935;-78
2023/07/16 11:36:52;;;;;;;;;;;;;;;40.08;22.11;99625.78;5033601;28;20317;-78
2023/07/16 11:39:18;;;;;;;;;;;;;;;40.08;23.16;99631.31;5033734;28;19963;-76
2023/07/16 11:41:53;;;;;;;;;;;;;;;40.20;22.15;99625.59;5033497;28;19951;-78
2023/07/16 11:44:19;;;;;;;;;;;;;;;40.34;20.38;99614.72;5033299;28;19920;-77
2023/07/16 11:46:46;;;;;;;;;;;;;;;40.25;22.91;99620.53;5033630;28;19909;-76
2023/07/16 11:49:11;;;;;;;;;;;;;;;40.33;21.31;99616.69;5034209;28;19996;-78
2023/07/16 11:51:36;;;;;;;;;;;;;;;40.34;21.65;99615.50;5033250;28;19959;-77
2023/07/16 11:54:02;;;;;;;;;;;;;;;40.48;22.29;99614.13;5032947;28;20402;-80
2023/07/16 11:56:27;;;;;;;;;;;;;;;40.66;22.31;99617.91;5033360;28;19909;-77
2023/07/16 11:58:52;;;;;;;;;;;;;;;40.79;21.67;99615.69;5015419;28;19928;-77
2023/07/16 12:01:17;;;;;;;;;;;;;;;40.75;21.37;99612.84;5015672;28;20357;-77
2023/07/16 12:03:42;;;;;;;;;;;;;;;40.84;22.01;99613.38;5015644;28;19913;-77
2023/07/16 12:06:09;;;;;;;;;;;;;;;41.01;22.20;99614.75;5033088;28;19928;-78
2023/07/16 12:08:34;;;;;;;;;;;;;;;41.09;21.62;99623.94;5032855;28;19909;-78
2023/07/16 12:10:59;;;;;;;;;;;;;;;41.06;21.07;99610.84;5032997;28;19909;-79
2023/07/16 12:13:25;;;;;;;;;;;;;;;41.18;21.32;99616.09;5033338;28;19947;-77
2023/07/16 12:15:50;;;;;;;;;;;;;;;41.25;20.87;99618.97;5033044;28;19915;-78
2023/07/16 12:18:15;;;;;;;;;;;;;;;41.20;21.78;99613.75;5032655;28;19909;-77
2023/07/16 12:20:41;;;;;;;;;;;;;;;41.35;21.69;99611.94;5032218;28;19940;-77
2023/07/16 12:23:06;;;;;;;;;;;;;;;41.42;21.82;99603.66;5032598;28;19986;-78
2023/07/16 12:25:31;;;;;;;;;;;;;;;41.45;21.75;99608.44;5032505;28;19909;-77
2023/07/16 12:27:57;;;;;;;;;;;;;;;41.43;21.37;99605.25;5032791;28;20441;-77
2023/07/16 12:30:23;;;;;;;;;;;;;;;41.51;21.87;99606.91;5032901;28;19909;-77
2023/07/16 12:32:48;;;;;;;;;;;;;;;41.41;22.52;99602.09;5032557;28;19999;-78
2023/07/16 12:35:14;;;;;;;;;;;;;;;41.25;21.78;99597.59;5032509;28;20290;-78
2023/07/16 12:37:39;;;;;;;;;;;;;;;41.05;21.88;99603.72;5033001;28;19909;-78
2023/07/16 12:40:04;;;;;;;;;;;;;;;40.98;21.77;99600.88;5032786;28;19909;-78